createdAt,value
2019-03-28T00:01:35.955Z,17.33
2019-03-28T00:04:08.031Z,18.57
2019-03-28T00:06:39.328Z,19.40
2019-03-28T00:09:11.371Z,18.77
2019-03-28T00:11:42.950Z,19.37
2019-03-28T00:14:14.456Z,18.45
2019-03-28T00:16:45.751Z,19.77
2019-03-28T00:19:18.353Z,18.50
2019-03-28T00:21:50.660Z,20.70
2019-03-28T00:24:49.901Z,19.80
2019-03-28T00:27:21.285Z,19.93
2019-03-28T00:29:52.982Z,20.53
2019-03-28T00:32:24.799Z,19.77
2019-03-28T00:34:56.053Z,19.40
2019-03-28T00:37:27.264Z,19.50
2019-03-28T00:39:58.502Z,18.37
2019-03-28T00:42:30.478Z,20.17
2019-03-28T00:45:01.921Z,20.60
2019-03-28T00:47:33.921Z,20.35
2019-03-28T00:50:15.716Z,20.37
2019-03-28T00:52:46.992Z,22.13
2019-03-28T00:55:18.546Z,21.93
2019-03-28T00:57:50.146Z,21.70
2019-03-28T01:00:22.272Z,20.52
2019-03-28T01:02:53.549Z,22.70
2019-03-28T01:05:25.047Z,20.47
2019-03-28T01:07:57.754Z,20.07
2019-03-28T01:10:29.704Z,21.35
2019-03-28T01:13:01.500Z,20.97
2019-03-28T01:15:32.700Z,22.13
2019-03-28T01:18:04.403Z,21.70
2019-03-28T01:20:36.122Z,23.65
2019-03-28T01:23:08.313Z,21.50
2019-03-28T01:25:39.713Z,22.10
2019-03-28T01:28:11.114Z,22.30
2019-03-28T01:30:42.815Z,22.10
2019-03-28T01:33:14.167Z,22.30
2019-03-28T01:35:45.858Z,22.70
2019-03-28T01:38:17.204Z,22.58
2019-03-28T01:40:50.005Z,22.70
2019-03-28T01:43:23.586Z,23.20
2019-03-28T01:45:57.035Z,22.07
2019-03-28T01:48:28.645Z,23.63
2019-03-28T01:51:00.440Z,23.73
2019-03-28T01:53:31.879Z,23.90
2019-03-28T01:56:03.269Z,24.07
2019-03-28T01:58:34.762Z,23.50
2019-03-28T02:01:06.594Z,23.27
2019-03-28T02:03:38.284Z,24.07
2019-03-28T02:06:09.880Z,24.40
2019-03-28T02:08:42.361Z,24.03
2019-03-28T02:11:13.741Z,24.63
2019-03-28T02:13:46.094Z,24.47
2019-03-28T02:16:17.871Z,22.83
2019-03-28T02:18:49.969Z,25.87
2019-03-28T02:21:21.454Z,25.17
2019-03-28T02:23:53.329Z,25.27
2019-03-28T02:26:26.958Z,25.45
2019-03-28T02:28:58.506Z,24.82
2019-03-28T02:31:30.279Z,24.57
2019-03-28T02:34:01.560Z,23.37
2019-03-28T02:36:33.237Z,23.57
2019-03-28T02:39:05.621Z,24.43
2019-03-28T02:41:37.041Z,26.75
2019-03-28T02:44:09.792Z,25.00
2019-03-28T02:46:41.123Z,25.32
2019-03-28T02:49:13.254Z,25.25
2019-03-28T02:51:44.621Z,26.23
2019-03-28T02:54:16.084Z,25.97
2019-03-28T02:56:47.336Z,24.03
2019-03-28T02:59:20.903Z,26.00
2019-03-28T03:01:53.185Z,25.73
2019-03-28T03:04:24.408Z,25.60
2019-03-28T03:06:55.592Z,25.70
2019-03-28T03:09:30.073Z,26.47
2019-03-28T03:12:01.552Z,27.23
2019-03-28T03:14:32.906Z,25.90
2019-03-28T03:17:04.233Z,26.40
2019-03-28T03:19:35.539Z,24.93
2019-03-28T03:22:08.169Z,26.87
2019-03-28T03:24:39.514Z,26.33
2019-03-28T03:27:10.979Z,26.53
2019-03-28T03:29:42.395Z,28.00
2019-03-28T03:32:13.754Z,27.45
2019-03-28T03:34:47.238Z,28.10
2019-03-28T03:37:18.663Z,29.07
2019-03-28T03:39:52.209Z,27.57
2019-03-28T03:42:24.048Z,26.82
2019-03-28T03:44:55.239Z,26.93
2019-03-28T03:47:27.655Z,26.97
2019-03-28T03:49:59.295Z,26.70
2019-03-28T03:52:30.725Z,27.53
2019-03-28T03:55:02.289Z,28.90
2019-03-28T03:57:33.712Z,30.30
2019-03-28T04:00:05.832Z,30.50
2019-03-28T04:02:37.279Z,28.95
2019-03-28T04:05:12.965Z,29.43
2019-03-28T04:07:44.470Z,30.40
2019-03-28T04:10:16.099Z,28.70
2019-03-28T04:12:47.730Z,28.97
2019-03-28T04:15:19.157Z,28.93
2019-03-28T04:17:50.727Z,29.17
2019-03-28T04:20:23.206Z,29.20
2019-03-28T04:22:54.916Z,30.10
2019-03-28T04:25:26.154Z,29.23
2019-03-28T04:27:59.607Z,29.60
2019-03-28T04:30:31.383Z,29.67
2019-03-28T04:33:02.660Z,30.40
2019-03-28T04:35:35.115Z,39.20
2019-03-28T13:27:34.859Z,10.80
2019-03-28T13:30:10.202Z,10.80
2019-03-28T13:32:42.454Z,9.30
2019-03-28T13:35:14.123Z,9.28
2019-03-28T13:37:45.091Z,9.47
2019-03-28T13:40:16.305Z,8.00
2019-03-28T13:42:48.744Z,7.83
2019-03-28T13:45:20.276Z,8.93
2019-03-28T13:47:54.178Z,9.43
2019-03-28T13:50:24.376Z,8.30
2019-03-28T13:52:55.321Z,8.37
2019-03-28T13:55:26.354Z,10.28
2019-03-28T13:57:57.757Z,8.50
2019-03-28T14:00:36.337Z,8.70
2019-03-28T14:03:07.541Z,8.18
2019-03-28T14:05:38.488Z,8.35
2019-03-28T14:08:09.463Z,8.40
2019-03-28T14:10:43.165Z,8.10
2019-03-28T14:13:14.226Z,8.37
2019-03-28T14:15:45.214Z,8.23
2019-03-28T14:18:17.412Z,7.40
2019-03-28T14:20:48.519Z,7.87
2019-03-28T14:23:19.402Z,8.05
2019-03-28T14:25:50.286Z,7.75
2019-03-28T14:28:21.367Z,8.07
2019-03-28T14:30:55.562Z,7.60
2019-03-28T14:33:28.128Z,8.07
2019-03-28T14:35:59.163Z,8.70
2019-03-28T14:38:30.116Z,8.10
2019-03-28T14:41:01.161Z,8.17
2019-03-28T14:43:32.044Z,8.93
2019-03-28T14:46:02.970Z,9.30
2019-03-28T14:48:33.892Z,9.40
2019-03-28T14:51:04.947Z,9.43
2019-03-28T14:53:36.099Z,9.60
2019-03-28T14:56:07.705Z,10.30
2019-03-28T14:58:39.207Z,10.67
2019-03-28T15:01:10.317Z,10.13
2019-03-28T15:03:41.362Z,10.90
2019-03-28T15:06:13.492Z,9.98
2019-03-28T15:08:44.456Z,10.20
2019-03-28T15:11:15.429Z,9.50
2019-03-28T15:13:46.469Z,10.07
2019-03-28T15:16:17.895Z,9.20
2019-03-28T15:18:51.685Z,8.90
2019-03-28T15:21:22.726Z,9.65
2019-03-28T15:23:53.656Z,9.23
2019-03-28T15:26:24.817Z,8.60
2019-03-28T15:28:55.823Z,8.57
2019-03-28T15:31:26.744Z,9.53
2019-03-28T15:33:57.716Z,10.08
2019-03-28T15:36:28.820Z,9.50
2019-03-28T15:38:59.799Z,9.17
2019-03-28T15:41:30.819Z,9.13
2019-03-28T15:44:01.773Z,9.63
2019-03-28T15:46:32.719Z,8.95
2019-03-28T15:49:03.794Z,9.73
2019-03-28T15:51:34.845Z,9.23
2019-03-28T15:54:05.939Z,9.37
2019-03-28T15:56:36.926Z,9.07
2019-03-28T15:59:08.028Z,9.33
2019-03-28T16:01:38.915Z,8.80
2019-03-28T16:04:09.816Z,9.43
2019-03-28T16:06:40.936Z,8.67
2019-03-28T16:09:12.509Z,9.03
2019-03-28T16:11:43.556Z,9.30
2019-03-28T16:14:14.456Z,9.80
2019-03-28T16:16:45.488Z,8.87
2019-03-28T16:19:16.457Z,9.30
2019-03-28T16:21:50.457Z,9.63
2019-03-28T16:24:21.427Z,10.10
2019-03-28T16:26:52.524Z,9.23
2019-03-28T16:29:23.582Z,9.85
2019-03-28T16:31:55.911Z,9.95
2019-03-28T16:34:26.909Z,9.60
2019-03-28T16:36:58.055Z,9.30
2019-03-28T16:39:29.191Z,9.20
2019-03-28T16:42:00.414Z,10.63
2019-03-28T16:44:31.384Z,9.83
2019-03-28T16:47:02.521Z,10.90
2019-03-28T16:49:33.595Z,10.00
2019-03-28T16:52:04.637Z,10.10
2019-03-28T16:54:38.841Z,9.87
2019-03-28T16:57:09.922Z,9.63
2019-03-28T16:59:40.954Z,9.77
2019-03-28T17:02:12.063Z,10.20
2019-03-28T17:04:43.184Z,10.30
2019-03-28T17:07:15.989Z,10.13
2019-03-28T17:09:47.520Z,8.50
2019-03-28T17:12:18.631Z,9.60
2019-03-28T17:14:49.595Z,9.23
2019-03-28T17:17:20.686Z,9.80
2019-03-28T17:19:51.749Z,9.73
2019-03-28T17:22:22.795Z,10.30
2019-03-28T17:24:53.920Z,9.83
2019-03-28T17:28:08.079Z,11.60
2019-03-28T17:30:43.922Z,11.07
2019-03-28T17:33:23.077Z,10.13
2019-03-28T17:35:55.001Z,10.53
2019-03-28T17:38:27.554Z,11.63
2019-03-28T17:40:59.103Z,11.17
2019-03-28T17:43:30.359Z,11.27
2019-03-28T17:46:01.672Z,10.25
2019-03-28T17:48:33.030Z,11.13
2019-03-28T17:51:04.095Z,11.87
2019-03-28T17:53:35.133Z,10.33
2019-03-28T17:56:06.343Z,11.40
2019-03-28T17:58:37.345Z,11.30
2019-03-28T18:01:08.705Z,10.67
2019-03-28T18:03:42.925Z,9.97
2019-03-28T18:06:14.642Z,11.13
2019-03-28T18:08:46.170Z,11.57
2019-03-28T18:11:17.535Z,11.22
2019-03-28T18:13:48.890Z,10.72
2019-03-28T18:16:20.325Z,11.18
2019-03-28T18:18:51.601Z,9.80
2019-03-28T18:21:23.046Z,10.88
2019-03-28T18:23:54.487Z,11.50
2019-03-28T18:26:25.930Z,12.27
2019-03-28T18:28:57.264Z,12.47
2019-03-28T18:31:28.593Z,12.07
2019-03-28T18:33:59.993Z,12.37
2019-03-28T18:39:14.935Z,12.93
2019-03-28T18:41:46.275Z,12.73
2019-03-28T18:44:17.564Z,14.50
2019-03-28T18:46:49.060Z,15.37
2019-03-28T18:49:23.813Z,15.37
2019-03-28T18:51:55.110Z,14.90
2019-03-28T18:54:26.463Z,14.33
2019-03-28T18:56:58.210Z,14.93
2019-03-28T18:59:29.447Z,14.97
2019-03-28T19:02:00.708Z,14.05
2019-03-28T19:04:32.061Z,15.03
2019-03-28T19:07:03.460Z,14.30
2019-03-28T19:09:34.796Z,16.00
2019-03-28T19:12:06.204Z,15.70
2019-03-28T19:14:37.474Z,15.40
2019-03-28T19:17:08.775Z,15.43
2019-03-28T19:19:40.093Z,17.07
2019-03-28T19:22:11.375Z,18.37
2019-03-28T19:24:42.780Z,17.17
2019-03-28T19:27:14.514Z,18.37
2019-03-28T19:29:45.621Z,17.17
2019-03-28T19:32:16.968Z,16.93
2019-03-28T19:34:48.302Z,15.10
2019-03-28T19:37:22.685Z,14.47
2019-03-28T19:39:53.027Z,14.47
2019-03-28T19:42:24.491Z,15.30
2019-03-28T19:44:56.066Z,14.77
2019-03-28T19:47:28.739Z,15.30
2019-03-28T19:50:00.282Z,15.17
2019-03-28T19:52:31.697Z,15.83
2019-03-28T19:55:03.105Z,13.80
2019-03-28T19:57:34.476Z,15.27
2019-03-28T20:00:06.465Z,14.70
2019-03-28T20:02:38.528Z,14.93
2019-03-28T20:05:11.295Z,15.17
2019-03-28T20:07:45.705Z,14.80
2019-03-28T20:10:16.980Z,13.58
2019-03-28T20:12:48.885Z,14.53
2019-03-28T20:15:20.198Z,13.55
2019-03-28T20:17:51.543Z,15.30
2019-03-28T20:20:25.019Z,13.68
2019-03-28T20:22:56.787Z,14.67
2019-03-28T20:25:28.244Z,16.53
2019-03-28T20:27:59.673Z,15.33
2019-03-28T20:30:30.980Z,14.87
2019-03-28T20:33:02.324Z,14.93
2019-03-28T20:35:33.563Z,14.45
2019-03-28T20:38:04.830Z,15.10
2019-03-28T20:40:36.370Z,14.20
2019-03-28T20:43:08.252Z,17.60
2019-03-28T20:45:39.568Z,15.17
2019-03-28T20:48:11.039Z,14.23
2019-03-28T20:50:42.421Z,14.77
2019-03-28T20:53:13.707Z,14.67
2019-03-28T20:55:45.264Z,15.07
2019-03-28T20:58:16.698Z,15.30
2019-03-28T21:00:49.287Z,15.17
2019-03-28T21:03:20.726Z,15.20
2019-03-28T21:05:52.028Z,14.13
2019-03-28T21:08:23.447Z,14.05
2019-03-28T21:10:54.743Z,13.77
2019-03-28T21:13:29.880Z,12.95
2019-03-28T21:16:00.575Z,13.60
2019-03-28T21:18:31.923Z,13.93
2019-03-28T21:21:03.339Z,14.80
2019-03-28T21:23:34.705Z,13.83
2019-03-28T21:26:06.021Z,14.47
2019-03-28T21:28:47.235Z,16.00
2019-03-28T21:31:10.580Z,14.13
2019-03-28T21:33:43.412Z,14.53
2019-03-28T21:36:28.648Z,14.90
2019-03-28T21:38:47.795Z,15.00
2019-03-28T21:41:20.344Z,13.75
2019-03-28T21:43:52.111Z,15.07
2019-03-28T21:46:25.951Z,14.97
2019-03-28T21:48:59.609Z,15.87
2019-03-28T21:51:30.987Z,15.23
2019-03-28T21:54:04.883Z,16.00
2019-03-28T21:56:35.563Z,15.13
2019-03-28T21:59:10.859Z,15.86
2019-03-28T22:01:42.314Z,15.33
2019-03-28T22:04:13.765Z,15.77
2019-03-28T22:06:45.115Z,16.95
2019-03-28T22:09:16.455Z,16.05
2019-03-28T22:11:47.847Z,16.43
2019-03-28T22:14:19.812Z,15.63
2019-03-28T22:16:51.135Z,15.03
2019-03-28T22:19:22.138Z,15.20
2019-03-28T22:21:53.190Z,15.20
2019-03-28T22:24:24.171Z,16.40
2019-03-28T22:26:55.215Z,14.77
2019-03-28T22:29:26.245Z,15.67
2019-03-28T22:31:57.224Z,14.60
2019-03-28T22:34:28.146Z,14.63
2019-03-28T22:37:00.893Z,15.27
2019-03-28T22:39:31.869Z,14.40
2019-03-28T22:42:02.831Z,15.00
2019-03-28T22:44:34.133Z,14.50
2019-03-28T22:47:05.945Z,14.73
2019-03-28T22:49:39.149Z,14.73
2019-03-28T22:52:10.196Z,14.80
2019-03-28T22:54:41.185Z,13.03
2019-03-28T22:57:12.357Z,13.33
2019-03-28T22:59:43.301Z,13.93
2019-03-28T23:02:14.362Z,14.00
2019-03-28T23:04:45.398Z,14.57
2019-03-28T23:07:16.438Z,14.65
2019-03-28T23:09:47.316Z,14.00
2019-03-28T23:12:18.346Z,14.00
2019-03-28T23:14:49.415Z,13.73
2019-03-28T23:17:28.189Z,14.33
2019-03-28T23:20:06.406Z,12.47
2019-03-28T23:22:37.537Z,12.83
2019-03-28T23:25:09.298Z,12.87
2019-03-28T23:27:40.364Z,13.70
2019-03-28T23:30:11.842Z,13.27
2019-03-28T23:32:43.015Z,13.33
2019-03-28T23:35:14.749Z,13.03
2019-03-28T23:37:45.758Z,12.63
2019-03-28T23:40:16.960Z,12.50
2019-03-28T23:42:48.149Z,12.00
2019-03-28T23:45:19.813Z,11.88
2019-03-28T23:47:50.999Z,12.30
2019-03-28T23:50:22.092Z,11.83
2019-03-28T23:52:53.208Z,11.93
2019-03-28T23:55:24.277Z,11.67
2019-03-28T23:57:55.247Z,11.63
